Time;durP1;ratioP1;P1;durP2;ratioP2;P2;SDS_P1;SDS_P2;PMS_P1;PMS_P2;Temp;Humidity;BMP_temperature;BMP_pressure;BME280_temperature;BME280_humidity;BME280_pressure;Samples;Min_cycle;Max_cycle;Signal;HPM_P1;HPM_P2
2022/03/29 00:00:46;;;;;;;11.07;7.93;;;;;;;10.70;45.32;98717.19;2620110;54;20030;-60
2022/03/29 00:03:18;;;;;;;15.18;8.40;;;;;;;10.71;45.08;98716.16;2619393;54;20014;-60
2022/03/29 00:05:47;;;;;;;10.88;8.07;;;;;;;10.77;45.01;98714.56;2619934;54;20022;-59
2022/03/29 00:08:17;;;;;;;10.73;8.10;;;;;;;10.74;45.18;98713.13;2620039;54;20034;-62
2022/03/29 00:10:47;;;;;;;21.17;8.43;;;;;;;10.69;45.32;98718.16;2620071;54;20034;-64
2022/03/29 00:13:17;;;;;;;11.10;8.38;;;;;;;10.55;45.76;98716.47;2619847;54;20557;-61
2022/03/29 00:15:46;;;;;;;13.93;7.88;;;;;;;10.48;46.06;98712.97;2619980;54;20034;-60
2022/03/29 00:18:19;;;;;;;14.75;8.90;;;;;;;10.48;46.87;98705.84;2619570;54;20026;-60
2022/03/29 00:20:48;;;;;;;13.57;8.73;;;;;;;10.52;46.46;98706.28;2620149;54;20026;-61
2022/03/29 00:23:18;;;;;;;11.10;8.35;;;;;;;10.54;46.71;98701.63;2619782;54;20031;-60
2022/03/29 00:25:48;;;;;;;13.40;8.13;;;;;;;10.47;46.79;98701.59;2620164;54;20035;-61
2022/03/29 00:28:17;;;;;;;15.88;8.93;;;;;;;10.42;46.88;98704.00;2619794;54;20034;-62
2022/03/29 00:30:47;;;;;;;12.20;8.25;;;;;;;10.39;46.86;98691.16;2619395;54;20034;-61
2022/03/29 00:33:19;;;;;;;13.43;8.80;;;;;;;10.33;47.47;98691.97;2619334;54;20023;-61
2022/03/29 00:35:49;;;;;;;15.07;8.43;;;;;;;10.04;48.35;98690.28;2620051;39;20383;-63
2022/03/29 00:38:19;;;;;;;11.88;8.80;;;;;;;10.01;48.84;98690.69;2618921;54;20027;-63
2022/03/29 00:40:48;;;;;;;10.75;8.25;;;;;;;10.02;48.54;98679.91;2618837;47;20029;-63
2022/03/29 00:43:18;;;;;;;10.93;8.45;;;;;;;10.12;48.50;98684.84;2619759;39;20437;-63
2022/03/29 00:45:48;;;;;;;11.45;8.00;;;;;;;10.13;48.38;98675.94;2619255;54;20601;-62
2022/03/29 00:48:20;;;;;;;14.15;8.73;;;;;;;10.06;48.78;98675.06;2619507;54;20034;-63
2022/03/29 00:50:50;;;;;;;22.42;9.65;;;;;;;9.96;48.65;98674.56;2619926;54;20045;-62
2022/03/29 00:53:22;;;;;;;12.38;8.60;;;;;;;9.81;48.95;98670.19;2618828;54;20038;-62
2022/03/29 00:55:54;;;;;;;11.48;8.52;;;;;;;9.74;49.54;98673.78;2618173;54;20095;-63
2022/03/29 00:58:24;;;;;;;11.05;7.97;;;;;;;9.74;49.66;98668.50;2618330;54;20030;-63
2022/03/29 01:00:58;;;;;;;14.20;8.38;;;;;;;9.69;49.89;98669.09;2619667;54;20062;-63
2022/03/29 01:03:30;;;;;;;11.07;8.15;;;;;;;9.74;49.43;98657.94;2618961;47;20039;-63
2022/03/29 01:06:00;;;;;;;11.98;8.73;;;;;;;9.72;49.47;98666.06;2619822;54;20034;-62
2022/03/29 01:08:30;;;;;;;11.82;8.82;;;;;;;9.68;49.81;98656.91;2619671;54;20030;-63
2022/03/29 01:11:00;;;;;;;12.48;9.40;;;;;;;9.72;49.78;98652.06;2619131;54;20038;-63
2022/03/29 01:13:30;;;;;;;10.02;8.25;;;;;;;9.72;49.75;98652.88;2619662;54;20026;-63
2022/03/29 01:17:38;;;;;;;12.02;8.25;;;;;;;9.60;49.87;98646.47;2619942;54;20033;-63
2022/03/29 01:18:54;;;;;;;10.85;7.68;;;;;;;9.42;50.09;98646.91;2619361;54;20034;-63
2022/03/29 01:21:28;;;;;;;11.70;7.80;;;;;;;9.38;50.31;98645.66;2619536;54;20045;-63
2022/03/29 01:24:00;;;;;;;;;;;;;;;9.35;49.65;98643.41;2619622;54;20038;-63
2022/03/29 01:26:33;;;;;;;14.13;8.15;;;;;;;9.31;49.58;98648.25;2619429;54;20466;-62
2022/03/29 01:29:04;;;;;;;9.82;7.57;;;;;;;9.24;49.66;98642.09;2621048;39;20446;-63
2022/03/29 01:31:35;;;;;;;8.77;6.97;;;;;;;9.23;50.07;98648.38;2619202;54;20022;-63
2022/03/29 01:34:07;;;;;;;11.35;8.55;;;;;;;9.25;49.96;98643.72;2619651;54;20031;-62
2022/03/29 01:36:36;;;;;;;9.23;7.60;;;;;;;9.31;50.11;98642.16;2619674;54;20033;-63
2022/03/29 01:39:08;;;;;;;10.25;8.18;;;;;;;9.31;50.21;98642.16;2620389;54;20038;-62
2022/03/29 01:41:38;;;;;;;11.80;8.45;;;;;;;9.24;50.32;98631.53;2620152;54;20534;-61
2022/03/29 01:44:08;;;;;;;12.07;8.38;;;;;;;9.23;50.49;98629.09;2619746;54;20045;-62
2022/03/29 01:46:38;;;;;;;10.93;8.57;;;;;;;9.15;50.75;98635.31;2619879;47;20030;-61
2022/03/29 01:49:10;;;;;;;10.50;8.57;;;;;;;9.15;51.27;98632.66;2622369;54;20545;-63
2022/03/29 01:51:39;;;;;;;15.48;8.90;;;;;;;9.07;51.31;98633.59;2622629;54;20049;-66
2022/03/29 01:54:11;;;;;;;13.73;8.48;;;;;;;9.01;51.65;98623.78;2622038;54;20034;-61
2022/03/29 01:56:41;;;;;;;15.07;8.98;;;;;;;8.98;51.91;98618.91;2620796;54;20033;-62
2022/03/29 01:59:12;;;;;;;11.50;7.80;;;;;;;9.00;51.47;98619.50;2620403;54;20026;-61
2022/03/29 02:01:42;;;;;;;11.07;6.88;;;;;;;9.01;51.31;98617.69;2620389;54;20034;-62
2022/03/29 02:04:13;;;;;;;9.02;7.30;;;;;;;9.02;50.83;98614.03;2620162;54;20121;-61
2022/03/29 02:06:43;;;;;;;10.63;7.28;;;;;;;8.98;51.09;98612.78;2620470;54;20026;-61
2022/03/29 02:09:16;;;;;;;10.13;7.55;;;;;;;9.06;50.72;98607.41;2619788;54;20057;-61
2022/03/29 02:11:46;;;;;;;9.02;7.32;;;;;;;9.10;50.28;98614.78;2619909;39;20410;-61
2022/03/29 02:14:16;;;;;;;11.98;7.50;;;;;;;9.09;50.44;98609.66;2619697;54;20042;-61
2022/03/29 02:16:45;;;;;;;11.20;7.07;;;;;;;9.08;50.38;98602.75;2619897;54;20031;-61
2022/03/29 02:19:15;;;;;;;9.75;7.85;;;;;;;9.09;50.73;98610.47;2619597;54;20102;-60
2022/03/29 02:21:45;;;;;;;8.77;6.10;;;;;;;9.04;50.75;98607.59;2619599;54;20039;-62
2022/03/29 02:24:17;;;;;;;10.30;6.93;;;;;;;9.11;50.51;98608.47;2619862;54;20034;-61
2022/03/29 02:26:46;;;;;;;8.15;6.70;;;;;;;9.17;50.37;98601.63;2619862;54;20039;-60
2022/03/29 02:29:16;;;;;;;10.15;7.57;;;;;;;9.14;50.16;98600.19;2619726;31;20534;-61
2022/03/29 02:31:46;;;;;;;11.35;7.63;;;;;;;9.12;50.39;98598.75;2618796;54;20049;-61
2022/03/29 02:34:15;;;;;;;9.98;7.25;;;;;;;9.09;50.51;98599.94;2618626;54;20098;-61
2022/03/29 02:36:45;;;;;;;11.30;7.60;;;;;;;9.08;50.16;98589.59;2619462;54;20037;-61
2022/03/29 02:39:17;;;;;;;8.18;6.93;;;;;;;9.02;50.42;98590.31;2619163;54;20038;-62
2022/03/29 02:41:47;;;;;;;11.85;8.05;;;;;;;9.01;50.73;98580.78;2619177;54;20038;-63
2022/03/29 02:44:16;;;;;;;11.30;7.85;;;;;;;9.01;50.56;98584.22;2618913;54;20553;-60
2022/03/29 02:46:46;;;;;;;11.23;8.32;;;;;;;9.09;50.80;98578.03;2618809;54;20549;-59
2022/03/29 02:49:16;;;;;;;9.23;8.02;;;;;;;9.07;50.11;98585.31;2619255;39;20429;-60
2022/03/29 02:51:47;;;;;;;13.27;8.50;;;;;;;8.95;50.93;98576.28;2618672;54;20034;-60
2022/03/29 02:54:20;;;;;;;11.93;8.25;;;;;;;8.98;50.88;98575.88;2618533;54;20058;-60
2022/03/29 02:56:50;;;;;;;11.40;8.02;;;;;;;9.02;50.90;98566.59;2618663;54;20042;-63
2022/03/29 02:59:19;;;;;;;12.55;8.93;;;;;;;8.92;51.07;98562.44;2618438;54;20042;-61
2022/03/29 03:01:49;;;;;;;13.40;8.82;;;;;;;8.74;51.36;98562.06;2618464;54;20082;-63
2022/03/29 03:04:19;;;;;;;11.02;8.63;;;;;;;8.60;51.80;98560.28;2618490;54;20026;-60
2022/03/29 03:06:49;;;;;;;11.20;7.90;;;;;;;8.55;51.85;98558.19;2619163;54;20022;-62
2022/03/29 03:09:21;;;;;;;11.60;8.52;;;;;;;8.57;52.35;98547.47;2620050;54;20030;-61
2022/03/29 03:11:50;;;;;;;9.70;7.65;;;;;;;8.62;52.21;98550.38;2621810;54;20561;-60
2022/03/29 03:14:20;;;;;;;10.73;7.78;;;;;;;8.71;51.97;98536.09;2622053;54;20058;-62
2022/03/29 03:16:50;;;;;;;13.43;8.60;;;;;;;8.74;52.13;98543.63;2621736;54;20073;-63
2022/03/29 03:19:38;;;;;;;12.13;8.40;;;;;;;8.83;51.69;98545.13;2620858;39;20403;-63
2022/03/29 03:22:07;;;;;;;11.95;7.93;;;;;;;8.86;51.88;98543.94;2620046;54;20026;-60
2022/03/29 03:24:40;;;;;;;11.50;8.27;;;;;;;8.88;52.09;98541.91;2620042;54;20550;-61
2022/03/29 03:27:09;;;;;;;12.05;9.02;;;;;;;8.93;51.86;98545.63;2619904;54;20049;-62
2022/03/29 03:29:39;;;;;;;10.90;8.68;;;;;;;8.90;51.30;98543.38;2620550;54;20026;-63
2022/03/29 03:32:10;;;;;;;11.10;9.35;;;;;;;8.78;51.87;98536.97;2620631;54;20045;-61
2022/03/29 03:34:40;;;;;;;13.73;8.80;;;;;;;8.55;52.53;98534.50;2620093;54;20023;-63
2022/03/29 03:37:10;;;;;;;14.43;9.05;;;;;;;8.54;52.74;98532.88;2619716;54;20038;-63
2022/03/29 03:39:43;;;;;;;11.45;9.50;;;;;;;8.52;52.76;98534.03;2620569;54;20046;-62
2022/03/29 03:42:12;;;;;;;12.73;8.57;;;;;;;8.42;53.14;98529.09;2620270;46;20038;-61
2022/03/29 03:44:42;;;;;;;15.20;9.70;;;;;;;8.37;53.55;98527.00;2620585;54;20030;-62
2022/03/29 03:47:12;;;;;;;12.20;9.82;;;;;;;8.28;53.71;98530.69;2620363;46;20483;-62
2022/03/29 03:49:41;;;;;;;14.05;9.65;;;;;;;8.35;53.80;98531.59;2619652;54;20027;-62
2022/03/29 03:52:12;;;;;;;14.05;9.93;;;;;;;8.34;53.83;98523.88;2618901;39;20450;-62
2022/03/29 03:54:44;;;;;;;11.68;9.43;;;;;;;8.35;53.83;98520.25;2618566;54;20030;-62
2022/03/29 03:57:14;;;;;;;13.65;10.18;;;;;;;8.28;54.07;98514.88;2619960;54;20026;-62
2022/03/29 03:59:45;;;;;;;14.27;9.93;;;;;;;8.22;54.56;98520.91;2619972;54;20078;-61
2022/03/29 04:02:14;;;;;;;12.10;9.43;;;;;;;8.23;54.33;98517.28;2620005;54;20027;-61
2022/03/29 04:04:44;;;;;;;15.25;9.68;;;;;;;8.23;54.77;98508.56;2620255;54;20022;-61
2022/03/29 04:07:14;;;;;;;14.35;9.68;;;;;;;8.16;54.45;98505.84;2621592;54;20039;-59
2022/03/29 04:09:46;;;;;;;14.13;9.80;;;;;;;8.03;54.99;98506.50;2621334;54;20038;-62
2022/03/29 04:12:15;;;;;;;16.10;9.98;;;;;;;7.95;54.99;98509.22;2621573;54;20055;-60
2022/03/29 04:14:45;;;;;;;13.38;9.82;;;;;;;7.91;55.26;98510.59;2622427;54;20037;-62
2022/03/29 04:17:15;;;;;;;11.35;8.90;;;;;;;7.90;55.53;98512.41;2621951;54;20031;-62
2022/03/29 04:19:44;;;;;;;13.27;9.20;;;;;;;7.99;55.05;98507.03;2622654;54;20542;-62
2022/03/29 04:22:18;;;;;;;16.73;9.55;;;;;;;8.01;54.76;98505.88;2620960;54;20041;-62
2022/03/29 04:24:50;;;;;;;14.07;9.88;;;;;;;8.09;54.57;98494.44;2620044;54;20038;-62
2022/03/29 04:27:20;;;;;;;13.68;9.27;;;;;;;8.10;54.35;98504.75;2620095;54;20037;-62
2022/03/29 04:29:49;;;;;;;11.73;8.85;;;;;;;8.08;54.64;98495.41;2620426;54;20574;-62
2022/03/29 04:32:19;;;;;;;10.48;7.80;;;;;;;8.01;54.31;98492.72;2620458;54;20033;-63
2022/03/29 04:34:49;;;;;;;11.70;8.70;;;;;;;8.11;54.28;98497.69;2620385;54;20022;-62
2022/03/29 04:37:19;;;;;;;14.07;10.43;;;;;;;8.11;54.48;98495.84;2620434;54;20554;-63
2022/03/29 04:39:51;;;;;;;12.73;8.90;;;;;;;8.07;54.35;98494.59;2620300;54;20545;-62
2022/03/29 04:42:20;;;;;;;12.90;8.68;;;;;;;8.13;54.33;98495.69;2620461;39;20430;-63
2022/03/29 04:44:50;;;;;;;16.60;9.93;;;;;;;8.16;54.07;98493.50;2619979;54;20590;-63
2022/03/29 04:47:20;;;;;;;14.88;10.52;;;;;;;8.15;54.24;98493.69;2620000;54;20038;-63
2022/03/29 04:49:49;;;;;;;14.20;10.10;;;;;;;8.10;54.42;98494.22;2620256;54;20034;-62
2022/03/29 04:52:19;;;;;;;13.93;10.30;;;;;;;7.89;54.29;98494.16;2620602;39;20466;-63
2022/03/29 04:54:53;;;;;;;14.20;9.73;;;;;;;7.77;55.01;98493.00;2620013;54;20103;-62
2022/03/29 04:57:22;;;;;;;;;;;;;;;7.79;55.47;98486.53;2620212;54;20045;-62
2022/03/29 04:59:52;;;;;;;17.02;10.30;;;;;;;7.81;54.69;98483.75;2620114;54;19946;-63
2022/03/29 05:02:23;;;;;;;15.93;11.10;;;;;;;7.81;55.32;98478.47;2620653;39;20434;-62
2022/03/29 05:04:52;;;;;;;15.95;10.55;;;;;;;7.69;55.15;98473.66;2620198;54;20770;-63
2022/03/29 05:07:23;;;;;;;16.05;10.48;;;;;;;7.59;55.51;98474.94;2619725;54;20593;-64
2022/03/29 05:09:56;;;;;;;14.20;9.43;;;;;;;7.51;55.69;98477.66;2619597;54;20038;-63
2022/03/29 05:12:25;;;;;;;14.55;9.93;;;;;;;7.56;56.23;98475.31;2620067;54;20042;-63
2022/03/29 05:14:55;;;;;;;15.55;9.35;;;;;;;7.63;56.08;98476.19;2619628;54;20038;-61
2022/03/29 05:17:25;;;;;;;13.93;8.98;;;;;;;7.65;55.74;98472.41;2620075;54;20566;-63
2022/03/29 05:19:54;;;;;;;14.45;10.52;;;;;;;7.74;55.63;98472.31;2620174;39;20442;-63
2022/03/29 05:22:24;;;;;;;12.63;9.35;;;;;;;7.82;55.77;98473.03;2618746;47;20030;-63
2022/03/29 05:24:56;;;;;;;14.25;10.27;;;;;;;7.86;55.84;98465.59;2620448;54;20561;-63
2022/03/29 05:27:26;;;;;;;14.95;9.70;;;;;;;7.90;55.32;98478.19;2619906;54;20039;-63
2022/03/29 05:29:55;;;;;;;14.38;10.75;;;;;;;7.90;55.13;98478.19;2619772;47;20030;-63
2022/03/29 05:32:26;;;;;;;15.85;9.18;;;;;;;7.79;55.49;98475.19;2620681;39;20378;-64
2022/03/29 05:34:56;;;;;;;16.67;9.73;;;;;;;7.72;55.78;98472.50;2619442;54;20026;-62
2022/03/29 05:37:27;;;;;;;16.20;10.38;;;;;;;7.77;55.94;98479.84;2619410;54;20097;-63
2022/03/29 05:40:00;;;;;;;16.05;10.52;;;;;;;7.86;55.91;98476.09;2620090;47;20031;-62
2022/03/29 05:42:29;;;;;;;16.35;10.52;;;;;;;7.90;55.57;98478.19;2620855;54;20042;-64
2022/03/29 05:44:59;;;;;;;28.05;10.15;;;;;;;7.93;55.35;98471.75;2620915;54;20023;-65
2022/03/29 05:50:11;;;;;;;19.05;11.70;;;;;;;7.81;55.41;98481.94;2620076;54;20026;-63
2022/03/29 05:52:41;;;;;;;17.27;11.25;;;;;;;7.75;55.91;98482.63;2620102;54;20031;-63
2022/03/29 05:55:13;;;;;;;14.10;10.15;;;;;;;7.74;55.81;98480.19;2619087;54;20562;-63
2022/03/29 05:57:43;;;;;;;16.40;11.35;;;;;;;7.73;55.92;98482.03;2619755;54;20042;-64
2022/03/29 06:00:14;;;;;;;22.17;10.70;;;;;;;7.70;56.01;98482.38;2620079;54;20034;-60
2022/03/29 06:02:47;;;;;;;22.10;11.55;;;;;;;7.72;56.22;98479.59;2619344;54;20105;-62
2022/03/29 06:05:17;;;;;;;16.70;10.30;;;;;;;7.78;56.26;98482.28;2620087;39;20403;-62
2022/03/29 06:07:46;;;;;;;14.95;10.02;;;;;;;7.87;55.99;98481.19;2619849;54;20073;-63
2022/03/29 06:10:19;;;;;;;15.13;10.63;;;;;;;7.96;56.06;98481.91;2620464;39;20362;-62
2022/03/29 06:12:49;;;;;;;16.17;11.27;;;;;;;8.00;55.89;98477.06;2619812;54;20038;-63
2022/03/29 06:15:19;;;;;;;18.38;11.02;;;;;;;7.99;56.13;98480.72;2619716;54;20038;-63
2022/03/29 06:17:49;;;;;;;14.70;10.80;;;;;;;8.05;55.54;98480.81;2620797;54;20091;-63
2022/03/29 06:20:18;;;;;;;18.10;12.10;;;;;;;8.08;56.04;98477.81;2621046;39;20544;-60
2022/03/29 06:22:48;;;;;;;19.00;11.98;;;;;;;8.18;55.71;98485.41;2620352;54;20050;-61
2022/03/29 06:25:20;;;;;;;19.02;12.15;;;;;;;8.40;55.65;98481.03;2620631;54;20042;-59
2022/03/29 06:27:50;;;;;;;17.40;11.75;;;;;;;8.56;54.83;98485.25;2620767;54;20034;-60
2022/03/29 06:30:19;;;;;;;19.00;12.07;;;;;;;8.58;54.87;98488.53;2620966;39;20450;-61
2022/03/29 06:32:50;;;;;;;20.90;13.27;;;;;;;8.61;54.68;98482.84;2619990;54;20027;-63
2022/03/29 06:35:21;;;;;;;19.55;12.93;;;;;;;8.58;54.85;98493.78;2620291;54;20026;-62
2022/03/29 06:37:51;;;;;;;18.25;11.95;;;;;;;8.57;54.55;98484.22;2620164;54;20042;-63
2022/03/29 06:40:25;;;;;;;18.52;12.30;;;;;;;8.59;54.79;98490.16;2620947;54;20058;-59
2022/03/29 06:42:57;;;;;;;21.00;13.73;;;;;;;8.79;54.38;98485.88;2620595;54;20161;-62
2022/03/29 06:45:28;;;;;;;23.85;12.20;;;;;;;8.81;54.04;98485.69;2622187;54;20148;-60
2022/03/29 06:47:59;;;;;;;19.35;11.63;;;;;;;8.82;54.64;98493.41;2623287;54;20038;-61
2022/03/29 06:50:29;;;;;;;18.33;12.57;;;;;;;8.86;53.94;98486.78;2620522;54;20061;-62
2022/03/29 06:52:59;;;;;;;19.63;12.48;;;;;;;8.84;54.21;98486.13;2620587;54;20031;-62
2022/03/29 06:55:31;;;;;;;20.85;13.38;;;;;;;8.94;53.91;98483.19;2620493;54;20545;-62
2022/03/29 06:58:01;;;;;;;20.25;12.82;;;;;;;9.06;54.19;98486.94;2620208;54;20037;-63
2022/03/29 07:00:31;;;;;;;19.98;12.98;;;;;;;9.25;53.79;98482.81;2621231;54;20041;-63
2022/03/29 07:03:01;;;;;;;22.88;13.45;;;;;;;9.37;53.02;98481.28;2623223;54;20077;-62
2022/03/29 07:05:31;;;;;;;24.50;13.90;;;;;;;9.34;53.13;98488.75;2623596;54;20027;-61
2022/03/29 07:08:00;;;;;;;17.45;13.02;;;;;;;9.43;53.26;98484.97;2624840;39;20437;-62
2022/03/29 07:13:16;;;;;;;21.40;13.93;;;;;;;9.52;52.42;98478.53;2624314;54;20033;-63
2022/03/29 07:15:46;;;;;;;20.65;13.40;;;;;;;9.54;52.61;98471.22;2624392;54;20033;-63
2022/03/29 07:18:15;;;;;;;26.45;14.75;;;;;;;9.55;52.19;98477.31;2621696;54;20030;-62
2022/03/29 07:20:45;;;;;;;25.38;13.95;;;;;;;9.53;52.47;98474.06;2620762;54;20034;-62
2022/03/29 07:23:15;;;;;;;20.63;13.73;;;;;;;9.58;52.43;98471.66;2620209;54;20038;-63
2022/03/29 07:25:47;;;;;;;21.75;13.73;;;;;;;9.68;52.52;98467.69;2620553;54;20049;-60
2022/03/29 07:28:16;;;;;;;24.63;13.45;;;;;;;9.83;52.11;98478.09;2620019;54;20038;-61
2022/03/29 07:30:46;;;;;;;24.90;14.65;;;;;;;10.01;52.34;98474.13;2620736;39;20421;-62
2022/03/29 07:33:17;;;;;;;21.05;15.35;;;;;;;10.21;51.51;98479.50;2620212;54;20146;-62
2022/03/29 07:35:48;;;;;;;27.65;17.92;;;;;;;10.25;51.58;98473.66;2619816;47;20031;-62
2022/03/29 07:38:17;;;;;;;33.10;21.60;;;;;;;10.32;50.95;98471.00;2619812;54;20038;-61
2022/03/29 07:40:50;;;;;;;24.77;18.77;;;;;;;10.33;51.53;98470.81;2619355;47;20041;-62
2022/03/29 07:43:19;;;;;;;25.35;16.48;;;;;;;10.50;51.46;98462.53;2619546;54;20042;-62
2022/03/29 07:45:52;;;;;;;26.38;15.50;;;;;;;10.56;51.48;98467.00;2619811;54;20047;-61
2022/03/29 07:48:22;;;;;;;23.67;15.60;;;;;;;10.73;51.37;98460.31;2619753;54;20046;-62
2022/03/29 07:51:13;;;;;;;28.90;16.90;;;;;;;11.00;50.67;98455.06;2620084;54;20061;-62
2022/03/29 07:53:43;;;;;;;24.75;16.20;;;;;;;11.15;50.57;98460.97;2620332;54;20026;-62
2022/03/29 07:56:15;;;;;;;26.85;15.82;;;;;;;11.32;50.36;98459.50;2620161;54;20052;-62
2022/03/29 07:58:45;;;;;;;21.77;17.10;;;;;;;11.38;49.75;98463.16;2619864;54;20546;-62
2022/03/29 08:01:14;;;;;;;25.55;16.52;;;;;;;11.55;49.49;98459.06;2620192;54;20547;-60
2022/03/29 08:03:44;;;;;;;26.27;18.27;;;;;;;11.67;49.03;98451.28;2619804;54;20080;-59
2022/03/29 08:06:14;;;;;;;21.77;15.48;;;;;;;11.78;49.01;98448.00;2620128;54;20045;-61
2022/03/29 08:08:43;;;;;;;23.08;16.63;;;;;;;11.94;48.94;98440.66;2619912;54;20022;-59
2022/03/29 08:11:15;;;;;;;28.45;18.08;;;;;;;12.13;48.84;98442.41;2620344;54;20031;-59
2022/03/29 08:13:46;;;;;;;26.48;17.45;;;;;;;12.27;48.60;98443.94;2619642;54;20022;-60
2022/03/29 08:16:16;;;;;;;33.63;19.15;;;;;;;12.49;47.79;98448.91;2619900;47;20533;-59
2022/03/29 08:18:46;;;;;;;23.67;17.02;;;;;;;12.53;47.36;98440.34;2619961;54;20551;-58
2022/03/29 08:23:59;;;;;;;34.38;19.85;;;;;;;12.76;47.04;98437.13;2619798;39;20415;-60
2022/03/29 08:26:31;;;;;;;30.08;19.17;;;;;;;12.82;47.18;98430.97;2619512;54;20034;-61
2022/03/29 08:29:01;;;;;;;39.75;25.00;;;;;;;12.94;46.82;98436.38;2619517;54;20038;-60
2022/03/29 08:31:31;;;;;;;42.28;26.02;;;;;;;13.00;46.95;98440.00;2618608;47;20037;-62
2022/03/29 08:34:01;;;;;;;36.35;24.85;;;;;;;13.04;47.00;98438.53;2619307;54;20030;-60
2022/03/29 08:36:31;;;;;;;42.00;25.75;;;;;;;13.13;47.29;98427.41;2619470;54;20034;-62
2022/03/29 08:39:01;;;;;;;43.25;26.75;;;;;;;13.31;47.09;98423.22;2619299;39;20440;-61
2022/03/29 08:41:40;;;;;;;39.28;25.77;;;;;;;13.50;46.83;98421.38;2619128;54;20046;-63
2022/03/29 08:44:09;;;;;;;55.53;32.95;;;;;;;13.60;47.24;98419.84;2619488;54;20538;-61
2022/03/29 08:46:42;;;;;;;47.72;31.02;;;;;;;13.61;47.37;98418.81;2620140;39;20422;-60
2022/03/29 08:49:13;;;;;;;46.08;31.33;;;;;;;13.74;47.22;98414.38;2618499;39;20458;-59
2022/03/29 08:51:42;;;;;;;52.45;32.65;;;;;;;13.84;47.52;98418.16;2618409;54;20034;-59
2022/03/29 08:54:12;;;;;;;46.55;31.58;;;;;;;13.93;47.02;98409.88;2618693;54;20033;-60
2022/03/29 08:56:44;;;;;;;56.58;32.33;;;;;;;13.93;47.21;98400.06;2618857;47;20061;-60
2022/03/29 08:59:15;;;;;;;49.70;31.90;;;;;;;14.02;47.30;98403.22;2619661;54;20038;-60
2022/03/29 09:01:44;;;;;;;49.60;32.70;;;;;;;14.13;46.73;98402.44;2619437;54;20150;-60
2022/03/29 09:04:15;;;;;;;48.53;31.13;;;;;;;14.15;47.19;98399.56;2619220;54;20077;-61
2022/03/29 09:07:00;;;;;;;47.35;31.17;;;;;;;14.30;46.92;98398.13;2619051;54;20034;-61
2022/03/29 09:09:32;;;;;;;46.70;30.92;;;;;;;14.42;46.71;98397.34;2619007;54;20031;-62
2022/03/29 09:12:13;;;;;;;50.60;30.52;;;;;;;14.58;46.42;98392.22;2618912;54;20035;-63
2022/03/29 09:14:55;;;;;;;41.00;27.48;;;;;;;14.67;46.19;98400.66;2618987;54;20030;-61
2022/03/29 09:17:31;;;;;;;49.72;30.80;;;;;;;14.88;45.75;98393.19;2618893;54;20053;-62
2022/03/29 09:20:02;;;;;;;45.67;31.55;;;;;;;14.99;45.44;98393.19;2619254;54;20034;-61
2022/03/29 09:22:46;;;;;;;48.72;31.92;;;;;;;15.13;44.58;98380.44;2619621;54;20038;-60
2022/03/29 09:25:19;;;;;;;49.45;32.08;;;;;;;15.23;44.43;98377.22;2617913;54;20562;-61
2022/03/29 09:28:02;;;;;;;47.15;29.63;;;;;;;15.37;44.14;98378.59;2618362;54;20558;-62
2022/03/29 09:30:38;;;;;;;42.67;27.73;;;;;;;15.55;44.06;98381.13;2618573;54;20042;-64
2022/03/29 09:33:10;;;;;;;40.38;24.45;;;;;;;15.70;42.89;98375.31;2618415;54;20042;-63
2022/03/29 09:35:56;;;;;;;32.03;22.17;;;;;;;15.77;39.58;98365.31;2618695;54;20042;-62
2022/03/29 09:38:30;;;;;;;27.80;18.67;;;;;;;15.79;39.07;98357.09;2618474;54;20027;-61
2022/03/29 09:41:00;;;;;;;20.92;14.35;;;;;;;15.97;37.54;98358.78;2618629;54;20114;-62
2022/03/29 09:44:03;;;;;;;25.10;17.17;;;;;;;15.97;35.97;98362.25;2618769;54;20080;-63
2022/03/29 09:46:33;;;;;;;20.73;14.65;;;;;;;16.02;35.78;98350.88;2618538;54;20042;-62
2022/03/29 09:49:04;;;;;;;24.48;15.55;;;;;;;16.12;36.10;98348.38;2617715;54;20569;-62
2022/03/29 09:51:34;;;;;;;24.13;16.10;;;;;;;16.28;35.67;98352.13;2618159;54;20046;-61
2022/03/29 09:54:03;;;;;;;23.08;15.20;;;;;;;16.38;35.74;98341.63;2618143;54;20035;-62
2022/03/29 09:56:33;;;;;;;23.48;17.20;;;;;;;16.57;35.00;98340.38;2618491;39;20415;-63
2022/03/29 09:59:20;;;;;;;22.80;14.75;;;;;;;16.62;34.99;98336.97;2618446;54;20060;-64
2022/03/29 10:01:53;;;;;;;23.58;16.35;;;;;;;16.60;34.54;98328.38;2618986;54;20065;-63
2022/03/29 10:04:24;;;;;;;24.23;15.95;;;;;;;16.63;34.74;98325.25;2619099;54;20560;-62
2022/03/29 10:06:56;;;;;;;20.63;14.73;;;;;;;16.66;34.12;98319.41;2617957;54;20034;-62
2022/03/29 10:09:29;;;;;;;19.48;13.40;;;;;;;16.71;33.71;98316.00;2617370;47;20031;-63
2022/03/29 10:12:03;;;;;;;15.95;12.55;;;;;;;16.71;32.58;98313.34;2619867;54;20043;-64
2022/03/29 10:14:39;;;;;;;;;;;;;;;16.60;31.68;98305.16;2620193;47;20042;-62
2022/03/29 10:17:09;;;;;;;16.10;11.13;;;;;;;16.71;31.35;98303.47;2618914;54;19946;-62
2022/03/29 10:19:41;;;;;;;18.58;12.70;;;;;;;16.75;30.44;98299.28;2619265;54;20035;-62
2022/03/29 10:22:11;;;;;;;17.70;12.25;;;;;;;16.77;30.42;98304.38;2619456;54;20273;-62
2022/03/29 10:24:41;;;;;;;15.48;12.32;;;;;;;16.89;30.56;98290.94;2619671;39;20564;-63
2022/03/29 10:27:11;;;;;;;16.08;11.27;;;;;;;16.92;30.54;98287.78;2618625;54;20086;-63
2022/03/29 10:29:48;;;;;;;19.90;12.25;;;;;;;17.06;30.18;98284.53;2618242;54;20023;-63
2022/03/29 10:32:31;;;;;;;16.27;11.65;;;;;;;17.17;29.10;98273.97;2618520;47;20038;-61
2022/03/29 10:35:08;;;;;;;17.25;11.77;;;;;;;17.23;29.67;98271.13;2618758;54;20057;-63
2022/03/29 10:37:55;;;;;;;17.55;11.95;;;;;;;17.40;29.10;98263.03;2618303;54;20027;-62
2022/03/29 10:40:37;;;;;;;15.82;12.00;;;;;;;17.37;28.15;98270.72;2619037;54;20533;-61
2022/03/29 10:43:29;;;;;;;15.43;11.95;;;;;;;17.50;28.69;98254.31;2619420;54;20553;-61
2022/03/29 10:46:23;;;;;;;15.30;11.70;;;;;;;17.43;28.18;98257.19;2619134;54;20026;-60
2022/03/29 10:49:19;;;;;;;16.73;11.73;;;;;;;17.38;28.35;98258.97;2618797;54;20118;-62
2022/03/29 10:51:49;;;;;;;17.85;12.35;;;;;;;17.53;28.38;98251.94;2619055;54;20034;-61
2022/03/29 10:54:36;;;;;;;16.98;11.07;;;;;;;17.63;28.12;98248.56;2618926;54;20039;-64
2022/03/29 10:57:08;;;;;;;16.13;11.43;;;;;;;17.62;28.15;98248.81;2618943;54;20035;-62
2022/03/29 10:59:39;;;;;;;15.77;11.50;;;;;;;17.73;27.86;98242.53;2619273;54;20098;-64
2022/03/29 11:02:14;;;;;;;14.80;11.38;;;;;;;17.63;27.48;98237.88;2618963;47;20030;-62
2022/03/29 11:05:07;;;;;;;15.98;11.85;;;;;;;17.65;27.32;98232.28;2619406;54;20548;-62
2022/03/29 11:07:37;;;;;;;20.55;11.73;;;;;;;17.71;28.05;98218.72;2619228;54;20034;-62
2022/03/29 11:10:12;;;;;;;15.57;11.18;;;;;;;17.92;27.57;98219.75;2619082;54;20026;-61
2022/03/29 11:12:49;;;;;;;14.55;11.68;;;;;;;18.06;27.68;98212.91;2618486;54;20034;-62
2022/03/29 11:15:42;;;;;;;14.07;11.57;;;;;;;18.19;27.37;98213.53;2618470;54;20058;-62
2022/03/29 11:18:51;;;;;;;14.20;11.27;;;;;;;18.11;27.38;98208.66;2618517;54;20034;-63
2022/03/29 11:21:42;;;;;;;13.30;11.05;;;;;;;18.16;27.63;98206.81;2618475;54;20026;-62
2022/03/29 11:24:15;;;;;;;15.95;12.18;;;;;;;18.12;27.43;98203.06;2618880;54;20058;-64
2022/03/29 11:27:00;;;;;;;15.07;11.63;;;;;;;18.07;27.33;98206.50;2618744;54;20030;-61
2022/03/29 11:29:30;;;;;;;14.18;10.60;;;;;;;18.05;27.63;98200.63;2618999;54;20041;-63
2022/03/29 11:32:01;;;;;;;18.77;12.05;;;;;;;18.05;27.46;98197.13;2618117;46;20027;-62
2022/03/29 11:34:40;;;;;;;16.08;11.93;;;;;;;18.09;27.08;98195.56;2618946;54;20023;-61
2022/03/29 11:37:28;;;;;;;17.00;11.63;;;;;;;17.95;26.77;98194.38;2618435;54;20042;-64
2022/03/29 11:39:58;;;;;;;18.65;12.05;;;;;;;17.88;27.06;98186.56;2618156;47;20027;-63
2022/03/29 11:42:44;;;;;;;18.00;11.68;;;;;;;17.94;27.37;98188.22;2618769;54;20089;-63
2022/03/29 11:45:15;;;;;;;22.10;13.07;;;;;;;18.04;27.15;98182.97;2618711;54;20564;-62
2022/03/29 11:47:54;;;;;;;16.20;12.60;;;;;;;18.20;27.34;98178.50;2619870;54;20581;-63
2022/03/29 11:50:31;;;;;;;21.42;12.82;;;;;;;18.30;26.96;98170.56;2620355;54;20026;-62
2022/03/29 11:53:05;;;;;;;17.52;12.45;;;;;;;18.36;27.16;98167.91;2620490;54;20046;-62
2022/03/29 11:55:34;;;;;;;15.55;12.52;;;;;;;18.43;26.74;98155.91;2620844;54;20037;-61
2022/03/29 11:58:04;;;;;;;16.08;12.25;;;;;;;18.59;26.29;98158.69;2621656;54;20026;-61